Time;durP1;ratioP1;P1;durP2;ratioP2;P2;SDS_P1;SDS_P2;PMS_P1;PMS_P2;Temp;Humidity;BMP_temperature;BMP_pressure;BME280_temperature;BME280_humidity;BME280_pressure;Samples;Min_cycle;Max_cycle;Signal;HPM_P1;HPM_P2
2022/04/23 00:00:07;;;;;;;13.50;11.98;;;;;;;;;;5055420;28;20071;-77
2022/04/23 00:02:39;;;;;;;12.90;11.57;;;;;;;;;;5055036;28;20138;-76
2022/04/23 00:05:04;;;;;;;12.55;11.07;;;;;;;;;;5054987;28;20025;-76
2022/04/23 00:07:30;;;;;;;16.42;11.65;;;;;;;;;;5054965;28;20372;-75
2022/04/23 00:10:02;;;;;;;12.93;11.15;;;;;;;;;;5054449;28;20350;-77
2022/04/23 00:12:27;;;;;;;13.38;11.05;;;;;;;;;;5055166;28;20025;-76
2022/04/23 00:14:54;;;;;;;13.50;11.45;;;;;;;;;;5037118;28;20028;-77
2022/04/23 00:17:19;;;;;;;16.30;11.43;;;;;;;;;;5037663;28;20025;-78
2022/04/23 00:19:46;;;;;;;12.45;10.10;;;;;;;;;;5054982;28;20035;-77
2022/04/23 00:22:16;;;;;;;11.57;10.32;;;;;;;;;;5054643;28;20415;-85
2022/04/23 00:24:41;;;;;;;12.00;10.10;;;;;;;;;;5054933;28;20036;-80
2022/04/23 00:27:07;;;;;;;10.68;9.57;;;;;;;;;;5054603;28;20021;-80
2022/04/23 00:29:32;;;;;;;13.23;9.70;;;;;;;;;;5054748;28;20020;-82
2022/04/23 00:32:06;;;;;;;11.70;9.20;;;;;;;;;;5054491;28;20108;-78
2022/04/23 00:34:31;;;;;;;10.23;9.05;;;;;;;;;;5054731;28;20044;-80
2022/04/23 00:36:57;;;;;;;9.88;8.90;;;;;;;;;;5054697;28;20028;-81
2022/04/23 00:39:24;;;;;;;12.15;9.77;;;;;;;;;;5036627;28;20075;-81
2022/04/23 00:41:52;;;;;;;12.68;10.05;;;;;;;;;;5054622;28;20029;-79
2022/04/23 00:44:19;;;;;;;13.00;10.05;;;;;;;;;;5054562;28;20058;-78
2022/04/23 00:46:45;;;;;;;12.45;10.88;;;;;;;;;;5054316;28;20380;-80
2022/04/23 00:49:11;;;;;;;12.57;10.73;;;;;;;;;;5054079;28;20041;-79
2022/04/23 00:51:38;;;;;;;11.48;10.07;;;;;;;;;;5054175;28;20053;-79
2022/04/23 00:54:07;;;;;;;11.98;10.50;;;;;;;;;;5054273;28;20390;-80
2022/04/23 00:56:33;;;;;;;10.00;8.98;;;;;;;;;;5036881;28;20056;-87
2022/04/23 00:59:14;;;;;;;13.50;10.70;;;;;;;;;;5037686;28;20373;-87
2022/04/23 01:01:42;;;;;;;13.73;10.10;;;;;;;;;;5054171;28;20047;-87
2022/04/23 01:04:08;;;;;;;11.20;8.57;;;;;;;;;;5036261;28;20035;-87
2022/04/23 01:06:44;;;;;;;9.32;8.32;;;;;;;;;;5036021;28;20029;-89
2022/04/23 01:09:09;;;;;;;11.65;9.00;;;;;;;;;;5053932;28;20033;-84
2022/04/23 01:11:37;;;;;;;8.85;7.95;;;;;;;;;;5054082;28;20021;-85
2022/04/23 01:14:18;;;;;;;8.60;7.80;;;;;;;;;;5054325;28;20029;-85
2022/04/23 01:16:43;;;;;;;8.77;7.88;;;;;;;;;;5054083;28;20036;-85
2022/04/23 01:19:08;;;;;;;9.32;7.97;;;;;;;;;;5053783;28;20453;-84
2022/04/23 01:21:34;;;;;;;10.27;9.18;;;;;;;;;;5053356;28;20040;-84
2022/04/23 01:24:02;;;;;;;10.48;9.13;;;;;;;;;;5053470;28;20025;-84
2022/04/23 01:26:28;;;;;;;9.65;8.65;;;;;;;;;;5053597;28;20469;-79
2022/04/23 01:28:55;;;;;;;11.10;9.48;;;;;;;;;;5035688;28;20408;-77
2022/04/23 01:31:20;;;;;;;13.18;9.60;;;;;;;;;;5054129;28;20025;-77
2022/04/23 01:33:45;;;;;;;10.07;8.90;;;;;;;;;;5053309;28;20554;-77
2022/04/23 01:36:12;;;;;;;9.48;8.52;;;;;;;;;;5019309;28;20041;-76
2022/04/23 01:38:37;;;;;;;9.18;7.70;;;;;;;;;;5053805;28;20027;-77
2022/04/23 01:41:04;;;;;;;10.15;8.52;;;;;;;;;;5053438;28;20469;-75
2022/04/23 01:43:29;;;;;;;10.40;8.90;;;;;;;;;;5053556;28;20036;-76
2022/04/23 01:45:55;;;;;;;10.38;8.98;;;;;;;;;;5053688;28;20036;-76
2022/04/23 01:48:21;;;;;;;9.88;8.80;;;;;;;;;;5053422;28;20115;-79
2022/04/23 01:50:46;;;;;;;10.68;8.43;;;;;;;;;;5035490;28;20108;-82
2022/04/23 01:53:11;;;;;;;10.57;8.38;;;;;;;;;;5035571;28;20028;-84
2022/04/23 01:55:37;;;;;;;11.43;8.73;;;;;;;;;;5053399;28;20112;-75
2022/04/23 01:58:02;;;;;;;8.90;8.00;;;;;;;;;;5053278;28;20029;-75
2022/04/23 02:00:30;;;;;;;9.25;8.02;;;;;;;;;;5035402;28;20033;-77
2022/04/23 02:02:57;;;;;;;9.65;7.65;;;;;;;;;;5053506;28;20534;-75
2022/04/23 02:05:28;;;;;;;9.35;7.90;;;;;;;;;;5035526;28;20080;-81
2022/04/23 02:07:54;;;;;;;9.07;8.13;;;;;;;;;;5053403;28;20029;-79
2022/04/23 02:10:20;;;;;;;8.57;7.68;;;;;;;;;;5053152;28;20075;-79
2022/04/23 02:12:46;;;;;;;8.25;7.38;;;;;;;;;;5053054;28;20035;-77
2022/04/23 02:15:13;;;;;;;10.10;8.68;;;;;;;;;;5053134;28;20104;-78
2022/04/23 02:17:43;;;;;;;10.27;8.82;;;;;;;;;;5053390;28;20033;-78
2022/04/23 02:20:18;;;;;;;12.90;10.35;;;;;;;;;;5053306;28;20079;-76
2022/04/23 02:22:47;;;;;;;13.63;10.38;;;;;;;;;;5053540;28;20078;-77
2022/04/23 02:25:20;;;;;;;11.73;10.45;;;;;;;;;;5053260;28;20075;-78
2022/04/23 02:27:46;;;;;;;13.00;11.05;;;;;;;;;;5053206;28;20017;-78
2022/04/23 02:30:14;;;;;;;11.85;10.27;;;;;;;;;;5052975;28;20074;-79
2022/04/23 02:32:48;;;;;;;11.85;9.93;;;;;;;;;;5053067;28;20045;-79
2022/04/23 02:35:15;;;;;;;12.85;9.35;;;;;;;;;;5038748;28;20422;-80
2022/04/23 02:37:44;;;;;;;12.70;9.18;;;;;;;;;;5038804;28;20032;-78
2022/04/23 02:40:10;;;;;;;10.88;9.05;;;;;;;;;;5056980;28;20460;-75
2022/04/23 02:42:37;;;;;;;12.73;9.32;;;;;;;;;;5038742;28;20021;-76
2022/04/23 02:45:03;;;;;;;9.90;8.90;;;;;;;;;;5056613;28;20418;-77
2022/04/23 02:47:29;;;;;;;11.63;9.45;;;;;;;;;;5056662;28;20010;-75
2022/04/23 02:49:54;;;;;;;12.23;10.00;;;;;;;;;;5056441;28;20033;-87
2022/04/23 02:52:40;;;;;;;12.10;9.73;;;;;;;;;;5056538;28;20031;-89
2022/04/23 02:55:06;;;;;;;11.50;10.05;;;;;;;;;;5056585;28;20039;-86
2022/04/23 02:57:39;;;;;;;15.82;11.10;;;;;;;;;;5056635;28;20528;-85
2022/04/23 03:00:05;;;;;;;12.68;10.35;;;;;;;;;;5056763;28;20033;-85
2022/04/23 03:02:36;;;;;;;13.05;10.55;;;;;;;;;;5038538;28;20076;-85
2022/04/23 03:05:03;;;;;;;12.50;10.05;;;;;;;;;;5056219;28;20060;-85
2022/04/23 03:07:50;;;;;;;14.40;11.18;;;;;;;;;;5056171;28;20416;-84
2022/04/23 03:10:16;;;;;;;13.07;10.82;;;;;;;;;;5056124;28;20058;-84
2022/04/23 03:12:42;;;;;;;14.00;10.63;;;;;;;;;;5056061;28;20499;-84
2022/04/23 03:15:37;;;;;;;11.25;9.85;;;;;;;;;;5055937;28;20028;-84
2022/04/23 03:18:05;;;;;;;11.63;9.68;;;;;;;;;;5038017;28;20171;-84
2022/04/23 03:20:33;;;;;;;12.95;9.82;;;;;;;;;;5038038;28;20452;-86
2022/04/23 03:22:58;;;;;;;11.07;9.65;;;;;;;;;;5056419;28;20025;-86
2022/04/23 03:25:25;;;;;;;12.52;10.70;;;;;;;;;;5055745;28;20196;-88
2022/04/23 03:27:51;;;;;;;17.42;14.02;;;;;;;;;;5055794;28;20029;-87
2022/04/23 03:30:28;;;;;;;15.27;12.18;;;;;;;;;;5038204;28;20021;-86
2022/04/23 03:32:54;;;;;;;21.67;17.05;;;;;;;;;;5055977;28;20087;-75
2022/04/23 03:35:20;;;;;;;19.77;15.05;;;;;;;;;;5055821;28;20029;-82
2022/04/23 03:37:48;;;;;;;19.05;15.15;;;;;;;;;;5055872;28;20033;-81
2022/04/23 03:40:14;;;;;;;17.80;14.43;;;;;;;;;;5055541;28;20100;-82
2022/04/23 03:42:40;;;;;;;16.88;13.10;;;;;;;;;;5037787;28;20075;-84
2022/04/23 03:45:09;;;;;;;15.32;11.52;;;;;;;;;;5036703;28;20017;-79
2022/04/23 03:47:35;;;;;;;12.40;10.43;;;;;;;;;;5055638;28;20029;-80
2022/04/23 03:50:07;;;;;;;13.13;9.90;;;;;;;;;;5037381;28;20561;-81
2022/04/23 03:52:33;;;;;;;13.30;11.05;;;;;;;;;;5020900;28;20035;-85
2022/04/23 03:55:04;;;;;;;13.45;11.25;;;;;;;;;;5037346;28;20025;-80
2022/04/23 03:57:31;;;;;;;12.80;11.07;;;;;;;;;;5037649;28;20082;-81
2022/04/23 04:00:03;;;;;;;12.95;11.23;;;;;;;;;;5055240;28;20086;-83
2022/04/23 04:02:35;;;;;;;13.27;11.10;;;;;;;;;;5055085;28;20055;-80
2022/04/23 04:05:04;;;;;;;14.63;11.85;;;;;;;;;;5020635;28;20469;-81
2022/04/23 04:07:30;;;;;;;14.02;11.07;;;;;;;;;;5055266;28;20541;-81
2022/04/23 04:09:55;;;;;;;14.63;11.65;;;;;;;;;;5037238;28;20025;-75
2022/04/23 04:12:20;;;;;;;13.65;12.13;;;;;;;;;;5055293;28;20025;-86
2022/04/23 04:14:52;;;;;;;16.63;12.13;;;;;;;;;;5036904;28;20520;-78
2022/04/23 04:17:18;;;;;;;14.98;11.27;;;;;;;;;;5055001;28;20025;-82
2022/04/23 04:19:44;;;;;;;12.85;10.43;;;;;;;;;;5054642;28;20021;-82
2022/04/23 04:22:10;;;;;;;14.32;11.00;;;;;;;;;;5037252;28;20091;-81
2022/04/23 04:24:35;;;;;;;12.88;10.82;;;;;;;;;;5054398;28;20021;-84
2022/04/23 04:27:00;;;;;;;10.60;9.35;;;;;;;;;;5054633;28;20037;-75
2022/04/23 04:29:26;;;;;;;11.90;9.05;;;;;;;;;;5054778;28;20025;-75
2022/04/23 04:31:51;;;;;;;9.65;8.65;;;;;;;;;;5036705;28;20032;-74
2022/04/23 04:34:32;;;;;;;10.07;8.50;;;;;;;;;;5036609;28;20040;-74
2022/04/23 04:37:05;;;;;;;9.65;8.48;;;;;;;;;;5054749;28;20107;-75
2022/04/23 04:39:30;;;;;;;10.20;8.90;;;;;;;;;;5054681;28;20086;-75
2022/04/23 04:41:55;;;;;;;13.43;10.50;;;;;;;;;;5053739;28;20029;-78
2022/04/23 04:44:21;;;;;;;9.70;8.70;;;;;;;;;;5053268;28;20393;-76
2022/04/23 04:46:46;;;;;;;10.93;9.57;;;;;;;;;;5053188;28;20024;-74
2022/04/23 04:49:11;;;;;;;12.10;9.93;;;;;;;;;;5052964;28;20287;-75
2022/04/23 04:51:37;;;;;;;12.05;10.20;;;;;;;;;;5053096;28;20024;-75
2022/04/23 04:54:03;;;;;;;16.13;10.90;;;;;;;;;;5053016;28;20040;-75
2022/04/23 04:56:28;;;;;;;11.20;9.63;;;;;;;;;;5052777;28;20017;-75
2022/04/23 04:58:54;;;;;;;10.70;9.52;;;;;;;;;;5052900;28;20094;-75
2022/04/23 05:01:19;;;;;;;11.85;10.32;;;;;;;;;;5052937;28;20074;-75
2022/04/23 05:03:44;;;;;;;12.75;10.43;;;;;;;;;;5052833;28;20032;-75
2022/04/23 05:06:10;;;;;;;12.50;10.40;;;;;;;;;;5052857;28;20067;-75
2022/04/23 05:08:36;;;;;;;14.45;10.38;;;;;;;;;;5052766;28;20083;-75
2022/04/23 05:11:02;;;;;;;15.05;11.32;;;;;;;;;;5052871;28;20023;-75
2022/04/23 05:13:27;;;;;;;19.52;12.05;;;;;;;;;;5052746;28;20090;-75
2022/04/23 05:15:53;;;;;;;17.92;12.27;;;;;;;;;;5052740;28;20466;-75
2022/04/23 05:18:18;;;;;;;15.38;11.45;;;;;;;;;;5052687;28;20420;-75
2022/04/23 05:20:43;;;;;;;15.60;12.07;;;;;;;;;;5052646;28;20024;-79
2022/04/23 05:23:09;;;;;;;16.40;12.20;;;;;;;;;;5052533;28;20033;-78
2022/04/23 05:25:35;;;;;;;15.30;11.40;;;;;;;;;;5052508;28;20500;-78
2022/04/23 05:28:00;;;;;;;14.32;11.95;;;;;;;;;;5052458;28;20029;-79
2022/04/23 05:30:25;;;;;;;16.35;12.93;;;;;;;;;;5052517;28;20484;-77
2022/04/23 05:32:51;;;;;;;15.65;12.32;;;;;;;;;;5052303;28;20362;-77
2022/04/23 05:35:16;;;;;;;14.95;12.38;;;;;;;;;;5034267;28;20071;-83
2022/04/23 05:37:41;;;;;;;23.70;17.30;;;;;;;;;;5053521;28;20041;-82
2022/04/23 05:40:07;;;;;;;16.88;13.50;;;;;;;;;;5053476;28;20017;-82
2022/04/23 05:42:33;;;;;;;16.00;12.40;;;;;;;;;;5035526;28;20111;-82
2022/04/23 05:44:58;;;;;;;16.77;12.35;;;;;;;;;;5053602;28;20749;-83
2022/04/23 05:47:23;;;;;;;14.27;12.77;;;;;;;;;;5052143;28;20415;-81
2022/04/23 05:49:49;;;;;;;16.43;11.93;;;;;;;;;;5051009;28;20029;-76
2022/04/23 05:52:14;;;;;;;16.63;12.07;;;;;;;;;;5051013;28;20272;-78
2022/04/23 05:54:40;;;;;;;14.85;11.80;;;;;;;;;;5051622;28;20515;-76
2022/04/23 05:57:05;;;;;;;13.38;11.07;;;;;;;;;;5034252;28;20021;-81
2022/04/23 05:59:31;;;;;;;13.98;11.35;;;;;;;;;;5052235;28;20082;-84
2022/04/23 06:01:57;;;;;;;13.98;10.90;;;;;;;;;;5052215;28;20068;-80
2022/04/23 06:04:23;;;;;;;12.57;10.50;;;;;;;;;;5034378;28;20465;-87
2022/04/23 06:06:48;;;;;;;11.75;10.50;;;;;;;;;;5034244;28;20607;-80
2022/04/23 06:09:13;;;;;;;13.65;10.77;;;;;;;;;;5054055;28;20148;-83
2022/04/23 06:11:39;;;;;;;12.32;9.80;;;;;;;;;;5056214;28;20147;-76
2022/04/23 06:14:04;;;;;;;10.73;9.07;;;;;;;;;;5055848;28;20013;-81
2022/04/23 06:16:30;;;;;;;15.23;11.82;;;;;;;;;;5055404;28;20056;-81
2022/04/23 06:18:55;;;;;;;11.48;9.63;;;;;;;;;;5055412;28;20460;-80
2022/04/23 06:21:21;;;;;;;8.68;7.63;;;;;;;;;;5055798;28;20546;-81
2022/04/23 06:23:46;;;;;;;10.40;8.75;;;;;;;;;;5055199;28;20029;-81
2022/04/23 06:26:12;;;;;;;9.90;7.93;;;;;;;;;;5055795;28;20108;-81
2022/04/23 06:28:37;;;;;;;6.47;5.97;;;;;;;;;;5055607;28;20028;-81
2022/04/23 06:31:02;;;;;;;6.43;5.82;;;;;;;;;;5055436;28;20056;-81
2022/04/23 06:33:28;;;;;;;17.38;10.82;;;;;;;;;;5053513;28;20044;-81
2022/04/23 06:35:54;;;;;;;11.55;9.20;;;;;;;;;;5055341;28;20033;-81
2022/04/23 06:38:19;;;;;;;35.15;19.45;;;;;;;;;;5037350;28;20534;-81
2022/04/23 06:40:44;;;;;;;9.38;8.27;;;;;;;;;;5055426;28;20029;-81
2022/04/23 06:43:10;;;;;;;5.13;4.50;;;;;;;;;;5055361;28;20675;-81
2022/04/23 06:45:42;;;;;;;5.28;4.88;;;;;;;;;;5037138;28;20286;-81
2022/04/23 06:48:08;;;;;;;8.60;7.60;;;;;;;;;;5055039;28;20045;-81
2022/04/23 06:50:34;;;;;;;7.03;6.32;;;;;;;;;;5055337;28;20020;-81
2022/04/23 06:53:00;;;;;;;4.80;4.40;;;;;;;;;;5037148;28;20619;-81
2022/04/23 06:55:26;;;;;;;2.90;2.70;;;;;;;;;;5055304;28;20009;-80
2022/04/23 06:57:51;;;;;;;5.35;4.90;;;;;;;;;;5054718;28;20035;-80
2022/04/23 07:00:17;;;;;;;3.58;3.38;;;;;;;;;;5054593;28;20032;-84
2022/04/23 07:02:42;;;;;;;5.47;4.80;;;;;;;;;;5035758;28;20033;-84
2022/04/23 07:05:08;;;;;;;5.50;5.00;;;;;;;;;;5048584;28;20380;-84
2022/04/23 07:07:33;;;;;;;3.33;3.13;;;;;;;;;;5034057;28;20024;-81
2022/04/23 07:09:58;;;;;;;3.27;2.97;;;;;;;;;;5051138;28;20033;-80
2022/04/23 07:12:24;;;;;;;3.45;3.17;;;;;;;;;;5051823;28;20284;-81
2022/04/23 07:14:49;;;;;;;3.63;3.43;;;;;;;;;;5051242;28;20035;-82
2022/04/23 07:17:15;;;;;;;3.63;3.42;;;;;;;;;;5051388;28;20386;-82
2022/04/23 07:19:40;;;;;;;4.13;3.83;;;;;;;;;;5050192;28;20104;-82
2022/04/23 07:22:06;;;;;;;3.50;3.25;;;;;;;;;;5050566;28;20044;-82
2022/04/23 07:24:31;;;;;;;4.28;3.80;;;;;;;;;;5033066;28;20032;-82
2022/04/23 07:26:59;;;;;;;5.07;4.68;;;;;;;;;;5050899;28;20037;-82
2022/04/23 07:29:24;;;;;;;3.13;2.92;;;;;;;;;;5051595;28;20031;-82
2022/04/23 07:31:50;;;;;;;3.05;2.85;;;;;;;;;;5032738;28;20029;-82
2022/04/23 07:39:44;;;;;;;3.78;3.53;;;;;;;;;;5050988;28;20032;-83
2022/04/23 07:42:09;;;;;;;3.63;3.33;;;;;;;;;;5050698;28;20381;-82
2022/04/23 07:44:36;;;;;;;3.85;3.50;;;;;;;;;;5050440;28;20029;-83
2022/04/23 07:47:01;;;;;;;3.05;2.85;;;;;;;;;;5050845;28;20017;-83
2022/04/23 07:49:27;;;;;;;4.05;3.85;;;;;;;;;;5050894;28;20111;-83
2022/04/23 07:51:52;;;;;;;2.95;2.75;;;;;;;;;;5050579;28;20108;-83
2022/04/23 07:54:17;;;;;;;5.13;3.90;;;;;;;;;;5050819;28;20064;-83
2022/04/23 07:56:44;;;;;;;3.72;3.53;;;;;;;;;;5050656;28;20021;-83
2022/04/23 07:59:09;;;;;;;3.85;3.50;;;;;;;;;;5050433;28;20056;-83
2022/04/23 08:01:34;;;;;;;3.90;3.60;;;;;;;;;;5050475;28;20045;-83
2022/04/23 08:04:02;;;;;;;7.72;6.93;;;;;;;;;;5050050;28;20111;-82
2022/04/23 08:06:28;;;;;;;6.95;6.45;;;;;;;;;;5050538;28;20028;-82
2022/04/23 08:08:53;;;;;;;8.95;7.85;;;;;;;;;;5050595;28;20037;-82
2022/04/23 08:11:19;;;;;;;5.20;4.80;;;;;;;;;;5050270;28;20044;-82
2022/04/23 08:13:44;;;;;;;7.43;6.00;;;;;;;;;;5032395;28;20033;-82
2022/04/23 08:16:10;;;;;;;28.95;22.27;;;;;;;;;;5032486;28;20023;-82
2022/04/23 08:18:36;;;;;;;5.10;4.60;;;;;;;;;;5050184;28;20528;-82
2022/04/23 08:21:01;;;;;;;3.70;3.38;;;;;;;;;;5015346;28;20028;-83
2022/04/23 08:23:26;;;;;;;4.40;4.00;;;;;;;;;;5049805;28;20040;-83
2022/04/23 08:25:55;;;;;;;3.40;3.13;;;;;;;;;;5049969;28;20033;-78
2022/04/23 08:31:05;;;;;;;3.67;3.38;;;;;;;;;;5049839;28;20068;-74
2022/04/23 08:33:57;;;;;;;3.22;2.92;;;;;;;;;;5049284;28;20122;-71
2022/04/23 08:36:16;;;;;;;4.32;4.03;;;;;;;;;;5050036;28;20037;-71
2022/04/23 08:38:41;;;;;;;3.33;3.13;;;;;;;;;;5049966;28;20078;-71
2022/04/23 08:41:07;;;;;;;3.28;3.08;;;;;;;;;;5049375;28;20040;-71
2022/04/23 08:43:32;;;;;;;6.53;5.93;;;;;;;;;;5049571;28;20048;-71
2022/04/23 08:46:01;;;;;;;4.80;4.40;;;;;;;;;;5033731;28;20033;-71
2022/04/23 08:48:27;;;;;;;3.58;3.38;;;;;;;;;;5052366;28;20040;-71
2022/04/23 08:50:58;;;;;;;5.80;5.18;;;;;;;;;;5052627;28;20037;-71
2022/04/23 08:53:26;;;;;;;4.45;3.97;;;;;;;;;;5051818;28;20029;-72
2022/04/23 08:55:52;;;;;;;5.35;4.95;;;;;;;;;;5052518;28;20020;-71
2022/04/23 08:58:17;;;;;;;4.65;4.35;;;;;;;;;;5052561;28;20120;-71
2022/04/23 09:00:43;;;;;;;6.10;5.55;;;;;;;;;;5033944;28;20063;-71
2022/04/23 09:03:15;;;;;;;5.45;4.93;;;;;;;;;;5051703;28;20396;-71
2022/04/23 09:05:43;;;;;;;5.93;4.43;;;;;;;;;;5034144;28;20864;-71
2022/04/23 09:08:09;;;;;;;4.40;4.05;;;;;;;;;;5052037;28;20021;-71
2022/04/23 09:10:45;;;;;;;18.10;14.70;;;;;;;;;;5052406;28;20032;-71
2022/04/23 09:13:10;;;;;;;11.38;8.43;;;;;;;;;;5033594;28;20373;-72
2022/04/23 09:24:09;;;;;;;4.88;4.38;;;;;;;;;;5051818;28;20040;-74
2022/04/23 09:26:34;;;;;;;4.55;4.15;;;;;;;;;;5052567;28;20064;-72
2022/04/23 09:29:13;;;;;;;85.22;34.55;;;;;;;;;;5052567;28;20053;-73
2022/04/23 09:31:38;;;;;;;22.63;13.13;;;;;;;;;;5052499;28;20044;-73
2022/04/23 09:34:15;;;;;;;116.57;56.60;;;;;;;;;;5051694;28;20045;-74
2022/04/23 09:36:52;;;;;;;4.13;3.83;;;;;;;;;;5052667;28;20032;-73
2022/04/23 09:39:38;;;;;;;5.18;4.72;;;;;;;;;;5052746;28;20120;-74
2022/04/23 09:42:13;;;;;;;11.23;6.65;;;;;;;;;;5052228;28;20039;-74
2022/04/23 09:44:42;;;;;;;249.20;82.45;;;;;;;;;;5051132;28;20060;-73
2022/04/23 09:47:07;;;;;;;303.38;152.38;;;;;;;;;;5052442;28;20031;-74
2022/04/23 09:49:38;;;;;;;90.40;54.20;;;;;;;;;;5052306;28;20025;-73
2022/04/23 09:52:07;;;;;;;18.08;13.50;;;;;;;;;;5052194;28;20029;-74
2022/04/23 09:54:34;;;;;;;4.45;4.15;;;;;;;;;;5051970;28;20065;-73
2022/04/23 09:57:00;;;;;;;166.25;87.28;;;;;;;;;;5052221;28;20036;-73
2022/04/23 09:59:27;;;;;;;110.80;64.95;;;;;;;;;;5051792;28;20021;-73
2022/04/23 10:01:54;;;;;;;22.52;19.05;;;;;;;;;;5033280;28;20036;-72
2022/04/23 10:04:23;;;;;;;39.03;22.45;;;;;;;;;;5050485;28;20032;-72
2022/04/23 10:06:49;;;;;;;7.90;7.13;;;;;;;;;;5049729;28;20388;-72
2022/04/23 10:09:17;;;;;;;4.72;4.43;;;;;;;;;;5051255;28;20037;-72
2022/04/23 10:11:43;;;;;;;262.33;101.53;;;;;;;;;;5052020;28;20065;-73
2022/04/23 10:14:10;;;;;;;5.85;5.25;;;;;;;;;;5051266;28;20140;-73
2022/04/23 10:16:38;;;;;;;4.18;3.88;;;;;;;;;;5033656;28;20450;-73
2022/04/23 10:19:03;;;;;;;3.65;3.45;;;;;;;;;;5033541;28;20445;-73
2022/04/23 10:21:32;;;;;;;3.83;3.53;;;;;;;;;;5033535;28;20075;-73
2022/04/23 10:24:30;;;;;;;4.15;3.60;;;;;;;;;;5051484;28;20021;-73
2022/04/23 10:26:59;;;;;;;4.65;4.25;;;;;;;;;;5028432;28;20095;-73
2022/04/23 10:29:26;;;;;;;4.57;4.13;;;;;;;;;;5050257;28;20040;-71
2022/04/23 10:32:10;;;;;;;191.27;71.45;;;;;;;;;;5049795;28;20044;-73
2022/04/23 10:34:36;;;;;;;312.17;106.93;;;;;;;;;;5047999;28;20033;-73
2022/04/23 10:37:20;;;;;;;35.30;13.18;;;;;;;;;;5048419;28;20037;-71
2022/04/23 10:39:52;;;;;;;342.98;113.07;;;;;;;;;;5048385;28;20519;-73
2022/04/23 10:42:18;;;;;;;102.82;39.72;;;;;;;;;;5047932;28;20122;-71
2022/04/23 10:44:44;;;;;;;85.40;26.98;;;;;;;;;;5048478;28;20423;-71
2022/04/23 10:47:14;;;;;;;378.67;113.30;;;;;;;;;;5048719;28;20036;-71
2022/04/23 10:49:40;;;;;;;;;;;;;;;;;;5030628;28;20048;-71
2022/04/23 10:52:05;;;;;;;564.00;205.93;;;;;;;;;;5030267;28;19909;-71
2022/04/23 10:54:39;;;;;;;558.42;191.55;;;;;;;;;;5048477;28;20439;-71
2022/04/23 10:57:08;;;;;;;72.60;25.42;;;;;;;;;;5051924;28;20036;-71
2022/04/23 10:59:43;;;;;;;288.20;89.65;;;;;;;;;;5033457;28;20031;-71
2022/04/23 11:02:14;;;;;;;253.57;81.40;;;;;;;;;;5051326;28;20072;-74
2022/04/23 11:13:48;;;;;;;275.92;92.57;;;;;;;;;;5051040;28;20032;-75
2022/04/23 11:16:22;;;;;;;510.90;205.02;;;;;;;;;;5056691;28;20009;-72
2022/04/23 11:18:51;;;;;;;440.83;182.88;;;;;;;;;;5054202;28;20029;-82
2022/04/23 11:21:23;;;;;;;550.60;218.40;;;;;;;;;;5063265;28;20036;-74
2022/04/23 11:23:49;;;;;;;97.03;44.08;;;;;;;;;;5060650;28;20073;-73
2022/04/23 11:26:15;;;;;;;670.50;295.85;;;;;;;;;;5053871;28;20107;-74
2022/04/23 11:28:41;;;;;;;166.40;90.10;;;;;;;;;;5032941;28;20032;-73
2022/04/23 11:31:14;;;;;;;231.27;92.88;;;;;;;;;;5020468;28;20017;-73
2022/04/23 11:33:53;;;;;;;13.00;8.50;;;;;;;;;;5019799;28;20171;-73
2022/04/23 11:36:19;;;;;;;6.70;5.30;;;;;;;;;;5054439;28;20098;-72
2022/04/23 11:38:44;;;;;;;115.93;64.38;;;;;;;;;;5053819;28;20535;-69
2022/04/23 11:41:24;;;;;;;126.10;66.40;;;;;;;;;;5053789;28;20111;-72
2022/04/23 11:43:49;;;;;;;64.05;45.83;;;;;;;;;;5035885;28;20666;-73
2022/04/23 11:46:15;;;;;;;14.07;12.68;;;;;;;;;;5053552;28;20025;-72
2022/04/23 11:48:46;;;;;;;4.78;4.00;;;;;;;;;;5053291;28;20037;-72
2022/04/23 11:51:12;;;;;;;4.18;3.88;;;;;;;;;;5052389;28;20048;-72
2022/04/23 11:53:48;;;;;;;4.18;3.88;;;;;;;;;;5050568;28;20480;-72
2022/04/23 11:56:40;;;;;;;4.55;4.25;;;;;;;;;;5050798;28;20115;-73
2022/04/23 11:59:07;;;;;;;10.00;9.20;;;;;;;;;;5031196;28;20845;-62
2022/04/23 12:01:33;;;;;;;8.65;7.85;;;;;;;;;;5033741;28;20434;-75
2022/04/23 12:03:59;;;;;;;11.80;10.80;;;;;;;;;;5032256;28;20151;-75
2022/04/23 12:06:25;;;;;;;4.78;4.47;;;;;;;;;;5031760;28;20025;-74
2022/04/23 12:08:51;;;;;;;4.30;4.00;;;;;;;;;;5032371;28;20037;-75
2022/04/23 12:11:20;;;;;;;4.18;3.88;;;;;;;;;;5050616;28;20036;-75
2022/04/23 12:13:48;;;;;;;6.25;5.57;;;;;;;;;;5049949;28;20024;-75
2022/04/23 12:16:14;;;;;;;5.47;5.03;;;;;;;;;;5032393;28;20109;-75
2022/04/23 12:18:40;;;;;;;5.38;4.97;;;;;;;;;;5050456;28;20032;-75
2022/04/23 12:21:06;;;;;;;6.07;5.65;;;;;;;;;;5051757;28;20603;-75
2022/04/23 12:23:41;;;;;;;4.60;4.30;;;;;;;;;;5035355;28;20048;-75
2022/04/23 12:26:07;;;;;;;5.05;4.65;;;;;;;;;;5054037;28;20056;-75
2022/04/23 12:42:27;;;;;;;4.90;4.50;;;;;;;;;;5035259;28;20029;-74
2022/04/23 12:44:53;;;;;;;5.63;5.13;;;;;;;;;;5052905;28;20078;-74
2022/04/23 12:47:34;;;;;;;6.30;5.78;;;;;;;;;;5053408;28;20036;-75
2022/04/23 12:50:02;;;;;;;4.78;4.43;;;;;;;;;;5053557;28;20116;-75
2022/04/23 12:52:36;;;;;;;5.18;4.78;;;;;;;;;;5035107;28;20013;-75
2022/04/23 12:55:12;;;;;;;5.82;5.32;;;;;;;;;;5035175;28;20040;-75
2022/04/23 12:57:49;;;;;;;5.53;5.13;;;;;;;;;;5019410;28;20086;-75
2022/04/23 13:00:19;;;;;;;6.20;5.57;;;;;;;;;;5033797;28;20127;-75
2022/04/23 13:02:47;;;;;;;;;;;;;;;;;;5031247;28;20396;-75
2022/04/23 13:05:12;;;;;;;5.38;4.95;;;;;;;;;;5048409;28;19904;-75
2022/04/23 13:10:22;;;;;;;6.25;5.65;;;;;;;;;;5047564;28;20098;-75
2022/04/23 13:12:47;;;;;;;5.60;5.22;;;;;;;;;;5013396;28;20457;-75
2022/04/23 13:15:15;;;;;;;5.88;5.38;;;;;;;;;;5029950;28;20387;-75
2022/04/23 13:17:41;;;;;;;5.95;5.30;;;;;;;;;;5029771;28;20389;-75
2022/04/23 13:20:10;;;;;;;5.60;5.20;;;;;;;;;;5048086;28;20035;-75
2022/04/23 13:22:36;;;;;;;5.22;4.35;;;;;;;;;;5049160;28;20032;-75
2022/04/23 13:25:02;;;;;;;4.78;4.43;;;;;;;;;;5030974;28;20112;-75
2022/04/23 13:27:29;;;;;;;4.95;4.50;;;;;;;;;;5048635;28;20099;-75
2022/04/23 13:29:54;;;;;;;5.95;4.43;;;;;;;;;;5049071;28;20033;-76
2022/04/23 13:32:20;;;;;;;8.38;7.78;;;;;;;;;;5030947;28;20503;-75
2022/04/23 13:34:45;;;;;;;11.90;11.00;;;;;;;;;;5048366;28;20036;-75
2022/04/23 13:37:11;;;;;;;5.45;5.05;;;;;;;;;;5030798;28;20025;-76
2022/04/23 13:39:36;;;;;;;12.02;11.05;;;;;;;;;;5048946;28;20382;-76
2022/04/23 13:42:02;;;;;;;4.18;3.88;;;;;;;;;;5048679;28;20125;-76
2022/04/23 13:44:28;;;;;;;4.85;4.45;;;;;;;;;;5048693;28;20025;-76
2022/04/23 13:46:54;;;;;;;18.42;8.18;;;;;;;;;;5048584;28;20487;-76
2022/04/23 13:49:19;;;;;;;126.65;27.58;;;;;;;;;;5048622;28;20579;-75
2022/04/23 13:51:44;;;;;;;22.17;16.67;;;;;;;;;;5031015;28;20107;-75
2022/04/23 13:54:10;;;;;;;6.88;6.28;;;;;;;;;;5048223;28;20060;-75
2022/04/23 13:56:35;;;;;;;12.75;9.45;;;;;;;;;;5048798;28;20024;-76
2022/04/23 13:59:01;;;;;;;7.90;7.10;;;;;;;;;;5048626;28;20521;-76
2022/04/23 14:01:26;;;;;;;4.43;4.03;;;;;;;;;;5030887;28;20063;-76
2022/04/23 14:12:04;;;;;;;5.68;5.18;;;;;;;;;;5048761;28;20053;-76
2022/04/23 14:14:29;;;;;;;5.22;4.80;;;;;;;;;;5048253;28;20107;-76
2022/04/23 14:16:55;;;;;;;5.30;4.90;;;;;;;;;;5034041;28;20112;-76
2022/04/23 14:19:23;;;;;;;5.20;4.90;;;;;;;;;;5052830;28;20029;-76
2022/04/23 14:21:49;;;;;;;5.60;5.15;;;;;;;;;;5035121;28;20378;-76
2022/04/23 14:24:17;;;;;;;7.23;6.53;;;;;;;;;;5018226;28;20047;-76
2022/04/23 14:26:43;;;;;;;5.43;5.03;;;;;;;;;;5052775;28;20616;-76
2022/04/23 14:29:10;;;;;;;7.15;6.45;;;;;;;;;;5035530;28;20017;-76
2022/04/23 14:31:35;;;;;;;8.30;6.47;;;;;;;;;;5038747;28;20110;-76
2022/04/23 14:34:01;;;;;;;17.87;14.27;;;;;;;;;;5034637;28;20076;-76
2022/04/23 14:36:26;;;;;;;45.47;39.83;;;;;;;;;;5034138;28;20371;-76
2022/04/23 14:38:53;;;;;;;13.30;12.02;;;;;;;;;;5031290;28;20028;-76
2022/04/23 14:41:18;;;;;;;5.35;4.95;;;;;;;;;;5032365;28;20043;-76
2022/04/23 14:43:44;;;;;;;4.68;4.32;;;;;;;;;;5032470;28;20025;-76
2022/04/23 14:46:10;;;;;;;11.40;7.93;;;;;;;;;;5031946;28;20072;-76
2022/04/23 14:48:35;;;;;;;5.85;5.25;;;;;;;;;;5032838;28;20044;-76
2022/04/23 14:53:44;;;;;;;9.63;6.53;;;;;;;;;;5033534;28;20147;-76
2022/04/23 14:56:12;;;;;;;6.18;5.57;;;;;;;;;;5034190;28;20010;-76
2022/04/23 14:58:38;;;;;;;10.93;6.72;;;;;;;;;;5034955;28;20363;-76
2022/04/23 15:01:03;;;;;;;4.45;4.15;;;;;;;;;;5035366;28;20033;-76
2022/04/23 15:03:28;;;;;;;5.40;4.90;;;;;;;;;;5033693;28;20040;-76
2022/04/23 15:05:55;;;;;;;10.55;7.55;;;;;;;;;;5035651;28;20030;-75
2022/04/23 15:08:21;;;;;;;5.28;4.78;;;;;;;;;;5034757;28;20032;-75
2022/04/23 15:10:46;;;;;;;4.45;4.15;;;;;;;;;;5036363;28;20071;-76
2022/04/23 15:13:13;;;;;;;4.35;4.05;;;;;;;;;;5036302;28;20029;-75
2022/04/23 15:15:38;;;;;;;4.35;3.95;;;;;;;;;;5034757;28;20029;-76
2022/04/23 15:18:04;;;;;;;4.00;3.80;;;;;;;;;;5031002;28;20044;-76
2022/04/23 15:20:29;;;;;;;3.53;3.35;;;;;;;;;;5035336;28;20056;-75
2022/04/23 15:22:55;;;;;;;5.28;4.88;;;;;;;;;;5036150;28;20519;-75
2022/04/23 15:25:20;;;;;;;9.90;8.90;;;;;;;;;;5034522;28;20071;-76